createdAt,value
2018-08-22T00:01:03.890Z,16.42
2018-08-22T00:03:33.351Z,16.33
2018-08-22T00:06:02.809Z,16.24
2018-08-22T00:08:37.640Z,16.16
2018-08-22T00:11:07.037Z,16.11
2018-08-22T00:13:36.882Z,16.10
2018-08-22T00:16:06.637Z,16.12
2018-08-22T00:18:36.875Z,16.12
2018-08-22T00:21:06.913Z,16.06
2018-08-22T00:23:37.772Z,16.00
2018-08-22T00:26:07.188Z,15.97
2018-08-22T00:28:36.908Z,15.92
2018-08-22T00:31:06.334Z,15.97
2018-08-22T00:33:35.777Z,16.01
2018-08-22T00:36:05.169Z,16.03
2018-08-22T00:38:35.476Z,16.00
2018-08-22T00:41:05.501Z,15.93
2018-08-22T00:43:35.380Z,15.93
2018-08-22T00:46:04.792Z,15.91
2018-08-22T00:48:34.200Z,15.93
2018-08-22T00:51:05.780Z,16.01
2018-08-22T00:53:35.199Z,16.02
2018-08-22T00:56:04.653Z,15.96
2018-08-22T00:58:34.074Z,15.89
2018-08-22T01:01:03.940Z,15.86
2018-08-22T01:03:33.356Z,15.78
2018-08-22T01:06:02.741Z,15.78
2018-08-22T01:08:33.344Z,15.84
2018-08-22T01:11:03.256Z,15.87
2018-08-22T01:13:32.664Z,15.88
2018-08-22T01:16:02.120Z,15.88
2018-08-22T01:18:31.523Z,15.88
2018-08-22T01:21:01.277Z,15.95
2018-08-22T01:23:30.643Z,15.93
2018-08-22T01:26:00.044Z,15.88
2018-08-22T01:28:29.987Z,15.84
2018-08-22T01:30:59.360Z,15.79
2018-08-22T01:33:36.064Z,15.77
2018-08-22T01:36:05.460Z,15.71
2018-08-22T01:38:34.876Z,15.68
2018-08-22T01:41:04.780Z,15.67
2018-08-22T01:43:34.160Z,15.62
2018-08-22T01:46:03.567Z,15.57
2018-08-22T01:48:32.994Z,15.52
2018-08-22T01:51:02.819Z,15.45
2018-08-22T01:53:32.223Z,15.43
2018-08-22T01:56:01.630Z,15.41
2018-08-22T01:58:31.053Z,15.34
2018-08-22T02:01:00.429Z,15.32
2018-08-22T02:03:30.370Z,15.33
2018-08-22T02:05:59.795Z,15.28
2018-08-22T02:08:29.280Z,15.20
2018-08-22T02:10:58.700Z,15.19
2018-08-22T02:13:28.429Z,15.19
2018-08-22T02:15:57.812Z,15.18
2018-08-22T02:18:27.200Z,15.20
2018-08-22T02:20:58.840Z,15.18
2018-08-22T02:23:28.274Z,15.18
2018-08-22T02:25:57.685Z,15.17
2018-08-22T02:28:27.079Z,15.14
2018-08-22T02:30:56.854Z,15.11
2018-08-22T02:33:26.335Z,15.05
2018-08-22T02:35:55.754Z,15.01
2018-08-22T02:38:26.223Z,14.98
2018-08-22T02:40:57.925Z,14.96
2018-08-22T02:43:27.386Z,14.89
2018-08-22T02:45:56.847Z,14.84
2018-08-22T02:48:26.238Z,14.83
2018-08-22T02:50:56.319Z,14.78
2018-08-22T02:53:25.712Z,14.71
2018-08-22T02:55:55.164Z,14.68
2018-08-22T02:58:27.069Z,14.66
2018-08-22T03:00:56.879Z,14.67
2018-08-22T03:03:28.194Z,14.61
2018-08-22T03:05:59.238Z,14.62
2018-08-22T03:08:29.247Z,14.62
2018-08-22T03:10:58.646Z,14.59
2018-08-22T03:13:29.842Z,14.59
2018-08-22T03:15:59.587Z,14.55
2018-08-22T03:18:28.961Z,14.49
2018-08-22T03:20:58.834Z,14.43
2018-08-22T03:23:28.224Z,14.42
2018-08-22T03:25:57.612Z,14.40
2018-08-22T03:28:27.020Z,14.31
2018-08-22T03:30:56.891Z,14.34
2018-08-22T03:33:26.283Z,14.37
2018-08-22T03:35:56.198Z,14.38
2018-08-22T03:38:25.619Z,14.33
2018-08-22T03:40:55.030Z,14.27
2018-08-22T03:43:25.655Z,14.26
2018-08-22T03:45:55.653Z,14.28
2018-08-22T03:48:25.018Z,14.20
2018-08-22T03:50:56.174Z,14.22
2018-08-22T03:53:25.625Z,14.20
2018-08-22T03:55:55.395Z,14.17
2018-08-22T03:58:24.787Z,14.13
2018-08-22T04:00:54.515Z,14.06
2018-08-22T04:03:23.919Z,14.01
2018-08-22T04:05:53.304Z,14.00
2018-08-22T04:08:22.720Z,13.98
2018-08-22T04:10:52.454Z,13.95
2018-08-22T04:13:21.883Z,13.94
2018-08-22T04:15:51.594Z,13.92
2018-08-22T04:18:21.016Z,13.91
2018-08-22T04:20:50.504Z,13.83
2018-08-22T04:23:20.507Z,13.82
2018-08-22T04:26:01.495Z,13.83
2018-08-22T04:28:31.143Z,13.80
2018-08-22T04:31:00.597Z,13.82
2018-08-22T04:33:30.962Z,13.83
2018-08-22T04:36:00.361Z,13.76
2018-08-22T04:38:30.321Z,13.72
2018-08-22T04:41:00.828Z,13.77
2018-08-22T04:43:30.226Z,13.77
2018-08-22T04:45:59.911Z,13.78
2018-08-22T04:48:29.317Z,13.82
2018-08-22T04:50:58.773Z,13.85
2018-08-22T04:53:28.195Z,13.88
2018-08-22T04:55:57.755Z,13.94
2018-08-22T04:58:27.959Z,13.96
2018-08-22T05:00:57.380Z,14.00
2018-08-22T05:03:26.805Z,14.03
2018-08-22T05:05:56.213Z,14.07
2018-08-22T05:08:27.223Z,14.08
2018-08-22T05:10:56.603Z,14.16
2018-08-22T05:13:26.009Z,14.24
2018-08-22T05:15:55.865Z,14.33
2018-08-22T05:18:25.268Z,14.39
2018-08-22T05:20:55.655Z,14.42
2018-08-22T05:23:26.083Z,14.51
2018-08-22T05:25:55.511Z,14.57
2018-08-22T05:28:25.734Z,14.69
2018-08-22T05:31:06.244Z,14.77
2018-08-22T05:33:35.619Z,14.86
2018-08-22T05:36:05.068Z,14.97
2018-08-22T05:38:34.853Z,15.08
2018-08-22T05:41:04.281Z,15.19
2018-08-22T05:43:33.791Z,15.34
2018-08-22T05:46:04.212Z,15.47
2018-08-22T05:48:33.631Z,15.59
2018-08-22T05:51:03.067Z,15.77
2018-08-22T05:53:32.461Z,15.95
2018-08-22T05:59:34.122Z,16.22
2018-08-22T06:02:03.576Z,16.36
2018-08-22T06:04:33.624Z,16.49
2018-08-22T06:07:03.547Z,16.68
2018-08-22T06:09:32.983Z,16.87
2018-08-22T06:12:03.035Z,17.09
2018-08-22T06:14:33.390Z,17.29
2018-08-22T06:17:05.135Z,17.48
2018-08-22T06:19:34.504Z,17.70
2018-08-22T06:28:49.365Z,18.30
2018-08-22T06:31:18.831Z,18.46
2018-08-22T06:33:50.210Z,18.65
2018-08-22T06:36:19.635Z,18.85
2018-08-22T06:38:49.944Z,19.00
2018-08-22T06:41:20.702Z,19.17
2018-08-22T06:43:50.106Z,19.35
2018-08-22T06:46:20.030Z,19.51
2018-08-22T06:48:49.465Z,19.68
2018-08-22T06:51:18.873Z,19.83
2018-08-22T06:53:48.629Z,19.96
2018-08-22T06:56:18.003Z,20.05
2018-08-22T06:58:47.573Z,20.21
2018-08-22T07:01:17.001Z,20.42
2018-08-22T07:03:46.838Z,20.59
2018-08-22T07:06:16.223Z,20.73
2018-08-22T07:08:45.621Z,20.95
2018-08-22T07:11:15.973Z,21.17
2018-08-22T07:13:45.343Z,21.28
2018-08-22T07:16:15.046Z,21.41
2018-08-22T07:18:44.442Z,21.55
2018-08-22T07:21:13.961Z,21.64
2018-08-22T07:23:43.666Z,21.74
2018-08-22T07:26:13.115Z,21.88
2018-08-22T07:28:44.462Z,21.93
2018-08-22T07:31:14.120Z,22.06
2018-08-22T07:33:44.237Z,22.17
2018-08-22T07:36:14.349Z,22.14
2018-08-22T07:38:43.800Z,22.21
2018-08-22T07:41:13.219Z,22.44
2018-08-22T07:43:42.917Z,22.46
2018-08-22T07:46:14.122Z,22.69
2018-08-22T07:48:45.120Z,22.87
2018-08-22T07:54:48.638Z,22.96
2018-08-22T07:57:21.275Z,23.08
2018-08-22T07:59:52.127Z,23.28
2018-08-22T08:02:21.577Z,23.31
2018-08-22T08:04:51.442Z,23.23
2018-08-22T08:07:20.845Z,23.14
2018-08-22T08:09:50.256Z,23.09
2018-08-22T08:12:23.347Z,23.30
2018-08-22T08:14:57.774Z,23.27
2018-08-22T08:17:27.296Z,23.22
2018-08-22T08:19:56.700Z,23.33
2018-08-22T08:22:26.557Z,23.49
2018-08-22T08:24:55.943Z,23.49
2018-08-22T08:27:26.042Z,23.71
2018-08-22T08:29:55.446Z,23.71
2018-08-22T08:32:25.352Z,23.73
2018-08-22T08:34:55.976Z,23.90
2018-08-22T08:37:25.473Z,23.74
2018-08-22T08:39:55.033Z,23.57
2018-08-22T08:42:24.518Z,23.69
2018-08-22T08:44:53.912Z,23.85
2018-08-22T08:47:25.654Z,23.81
2018-08-22T08:49:55.395Z,23.85
2018-08-22T08:52:24.833Z,23.83
2018-08-22T08:54:55.357Z,23.60
2018-08-22T08:57:24.939Z,23.55
2018-08-22T08:59:56.832Z,23.49
2018-08-22T09:02:27.067Z,23.58
2018-08-22T09:04:56.933Z,23.64
2018-08-22T09:07:26.893Z,23.76
2018-08-22T09:09:56.327Z,23.74
2018-08-22T09:12:27.129Z,23.93
2018-08-22T09:14:57.578Z,23.91
2018-08-22T09:17:28.733Z,23.95
2018-08-22T09:19:58.196Z,24.01
2018-08-22T09:22:27.672Z,24.16
2018-08-22T09:24:58.586Z,24.19
2018-08-22T09:27:28.283Z,24.29
2018-08-22T09:29:58.591Z,24.37
2018-08-22T09:32:28.634Z,24.27
2018-08-22T09:34:59.947Z,24.26
2018-08-22T09:37:31.802Z,24.37
2018-08-22T09:40:02.692Z,24.43
2018-08-22T09:42:33.075Z,24.54
2018-08-22T09:45:03.870Z,24.59
2018-08-22T09:47:35.971Z,24.58
2018-08-22T09:50:06.274Z,24.75
2018-08-22T09:52:35.893Z,24.74
2018-08-22T09:55:07.225Z,24.53
2018-08-22T09:57:37.381Z,24.54
2018-08-22T10:00:08.918Z,24.57
2018-08-22T10:02:38.944Z,24.61
2018-08-22T10:05:10.100Z,24.73
2018-08-22T10:07:39.459Z,24.86
2018-08-22T10:10:10.021Z,24.97
2018-08-22T10:12:40.427Z,25.12
2018-08-22T10:15:09.858Z,25.26
2018-08-22T10:17:39.266Z,25.24
2018-08-22T10:20:10.630Z,25.33
2018-08-22T10:22:40.066Z,25.38
2018-08-22T10:25:11.054Z,25.50
2018-08-22T10:27:41.455Z,25.73
2018-08-22T10:30:14.857Z,25.77
2018-08-22T10:32:44.545Z,25.79
2018-08-22T10:35:16.444Z,25.84
2018-08-22T10:37:45.891Z,25.99
2018-08-22T10:40:16.584Z,26.16
2018-08-22T10:42:46.895Z,26.24
2018-08-22T10:45:21.843Z,26.29
2018-08-22T10:47:52.040Z,26.33
2018-08-22T10:50:22.121Z,26.55
2018-08-22T10:52:51.814Z,26.63
2018-08-22T10:55:23.645Z,26.72
2018-08-22T10:57:53.756Z,26.93
2018-08-22T11:00:23.669Z,26.94
2018-08-22T11:02:56.082Z,27.01
2018-08-22T11:05:25.541Z,27.06
2018-08-22T11:08:03.595Z,26.97
2018-08-22T11:10:33.094Z,27.06
2018-08-22T11:13:03.470Z,27.05
2018-08-22T11:15:33.435Z,27.10
2018-08-22T11:18:03.727Z,26.92
2018-08-22T11:20:39.431Z,26.79
2018-08-22T11:23:20.508Z,26.86
2018-08-22T11:26:00.910Z,26.81
2018-08-22T11:28:42.427Z,26.96
2018-08-22T11:31:22.846Z,27.15
2018-08-22T11:34:04.203Z,27.16
2018-08-22T11:36:33.346Z,27.14
2018-08-22T11:39:04.481Z,27.18
2018-08-22T11:41:36.601Z,27.13
2018-08-22T11:44:09.422Z,26.99
2018-08-22T11:46:39.393Z,26.92
2018-08-22T11:49:10.627Z,26.89
2018-08-22T11:51:40.058Z,26.81
2018-08-22T11:54:09.705Z,26.69
2018-08-22T11:56:39.155Z,26.65
2018-08-22T11:59:08.956Z,26.67
2018-08-22T12:01:39.326Z,26.87
2018-08-22T12:04:09.826Z,26.90
2018-08-22T12:06:39.336Z,27.09
2018-08-22T12:09:15.313Z,27.24
2018-08-22T12:11:45.173Z,27.26
2018-08-22T12:14:15.979Z,27.30
2018-08-22T12:16:46.807Z,27.51
2018-08-22T12:19:17.913Z,27.76
2018-08-22T12:21:50.357Z,27.85
2018-08-22T12:24:21.053Z,27.83
2018-08-22T12:26:51.471Z,27.76
2018-08-22T12:29:21.706Z,27.73
2018-08-22T12:31:53.054Z,27.97
2018-08-22T12:34:23.415Z,27.86
2018-08-22T12:36:52.878Z,27.67
2018-08-22T12:39:40.827Z,27.51
2018-08-22T12:42:24.175Z,27.42
2018-08-22T12:44:57.242Z,27.52
2018-08-22T12:47:26.650Z,27.76
2018-08-22T12:49:58.327Z,27.95
2018-08-22T12:52:28.335Z,28.00
2018-08-22T12:54:57.809Z,27.94
2018-08-22T12:57:34.027Z,28.17
2018-08-22T13:00:03.434Z,28.46
2018-08-22T13:02:32.830Z,28.47
2018-08-22T13:05:04.137Z,28.54
2018-08-22T13:07:33.579Z,28.50
2018-08-22T13:10:04.150Z,28.46
2018-08-22T13:12:34.131Z,28.46
2018-08-22T13:15:08.402Z,28.43
2018-08-22T13:17:38.610Z,28.37
2018-08-22T13:20:08.126Z,28.43
2018-08-22T13:22:37.550Z,28.51
2018-08-22T13:25:07.911Z,28.41
2018-08-22T13:27:37.343Z,28.40
2018-08-22T13:30:07.403Z,28.31
2018-08-22T13:32:43.100Z,28.35
2018-08-22T13:35:15.000Z,28.34
2018-08-22T13:37:45.443Z,28.28
2018-08-22T13:40:15.694Z,28.39
2018-08-22T13:42:45.093Z,28.51
2018-08-22T13:45:14.511Z,28.64
2018-08-22T13:47:45.580Z,28.74
2018-08-22T13:50:15.045Z,28.92
2018-08-22T13:52:46.897Z,28.79
2018-08-22T13:55:17.265Z,28.53
2018-08-22T13:57:47.369Z,28.31
2018-08-22T14:00:19.287Z,28.20
2018-08-22T14:02:48.714Z,28.17
2018-08-22T14:05:19.283Z,28.22
2018-08-22T14:07:52.064Z,28.35
2018-08-22T14:10:23.014Z,28.35
2018-08-22T14:12:52.651Z,28.40
2018-08-22T14:15:24.509Z,28.52
2018-08-22T14:17:53.940Z,28.66
2018-08-22T14:20:23.315Z,28.83
2018-08-22T14:22:52.676Z,28.96
2018-08-22T14:25:22.097Z,29.05
2018-08-22T14:27:52.686Z,29.08
2018-08-22T14:30:24.002Z,29.00
2018-08-22T14:32:53.767Z,29.28
2018-08-22T14:35:23.167Z,29.52
2018-08-22T14:37:53.990Z,29.75
2018-08-22T14:40:23.395Z,29.79
2018-08-22T14:42:56.125Z,29.76
2018-08-22T14:45:38.670Z,29.80
2018-08-22T14:48:08.131Z,29.89
2018-08-22T14:50:38.555Z,29.87
2018-08-22T14:53:10.314Z,29.84
2018-08-22T14:55:39.925Z,29.80
2018-08-22T14:58:09.812Z,29.85
2018-08-22T15:00:40.399Z,29.92
2018-08-22T15:03:15.878Z,29.78
2018-08-22T15:05:48.434Z,29.73
2018-08-22T15:08:24.376Z,29.65
2018-08-22T15:10:54.571Z,29.60
2018-08-22T15:13:24.067Z,29.48
2018-08-22T15:15:57.047Z,29.37
2018-08-22T15:18:26.477Z,29.43
2018-08-22T15:20:58.508Z,29.40
2018-08-22T15:23:30.909Z,29.35
2018-08-22T15:26:02.077Z,29.31
2018-08-22T15:28:31.509Z,29.23
2018-08-22T15:31:02.854Z,29.14
2018-08-22T15:33:32.534Z,29.02
2018-08-22T15:36:03.248Z,29.01
2018-08-22T15:38:34.743Z,29.08
2018-08-22T15:41:05.827Z,29.07
2018-08-22T15:43:38.299Z,29.02
2018-08-22T15:46:07.658Z,29.09
2018-08-22T15:48:38.834Z,29.09
2018-08-22T15:51:10.642Z,28.99
2018-08-22T15:53:41.534Z,28.90
2018-08-22T15:56:14.682Z,28.91
2018-08-22T15:58:44.566Z,28.94
2018-08-22T16:01:18.477Z,28.94
2018-08-22T16:03:49.295Z,28.97
2018-08-22T16:06:18.715Z,28.98
2018-08-22T16:08:49.468Z,29.02
2018-08-22T16:11:20.726Z,29.01
2018-08-22T16:13:50.985Z,28.89
2018-08-22T16:16:21.210Z,28.67
2018-08-22T16:18:52.593Z,28.56
2018-08-22T16:21:28.700Z,28.41
2018-08-22T16:23:58.161Z,28.28
2018-08-22T16:26:28.244Z,28.16
2018-08-22T16:29:02.747Z,28.10
2018-08-22T16:31:38.663Z,28.00
2018-08-22T16:34:10.500Z,27.89
2018-08-22T16:36:41.891Z,27.82
2018-08-22T16:39:14.272Z,27.76
2018-08-22T16:41:43.701Z,27.65
2018-08-22T16:44:15.064Z,27.58
2018-08-22T16:46:45.249Z,27.52
2018-08-22T16:49:19.081Z,27.43
2018-08-22T16:51:51.619Z,27.34
2018-08-22T16:54:24.050Z,27.28
2018-08-22T16:56:56.626Z,27.23
2018-08-22T16:59:26.642Z,27.14
2018-08-22T17:01:56.108Z,27.05
2018-08-22T17:04:27.013Z,26.95
2018-08-22T17:07:06.581Z,26.88
2018-08-22T17:09:37.945Z,26.83
2018-08-22T17:12:11.122Z,26.74
2018-08-22T17:14:40.481Z,26.64
2018-08-22T17:17:11.719Z,26.55
2018-08-22T17:19:42.391Z,26.49
2018-08-22T17:22:14.124Z,26.39
2018-08-22T17:24:44.057Z,26.32
2018-08-22T17:27:13.696Z,26.23
2018-08-22T17:29:45.676Z,26.15
2018-08-22T17:32:15.825Z,26.08
2018-08-22T17:34:45.300Z,26.02
2018-08-22T17:37:16.283Z,25.95
2018-08-22T17:39:45.792Z,25.85
2018-08-22T17:42:15.154Z,25.76
2018-08-22T17:44:45.429Z,25.71
2018-08-22T17:47:18.176Z,25.62
2018-08-22T17:50:18.584Z,25.49
2018-08-22T17:52:48.958Z,25.36
2018-08-22T17:55:18.538Z,25.27
2018-08-22T17:57:48.824Z,25.17
2018-08-22T18:00:19.591Z,25.07
2018-08-22T18:02:50.038Z,24.98
2018-08-22T18:05:21.802Z,24.90
2018-08-22T18:07:52.979Z,24.82
2018-08-22T18:10:22.676Z,24.76
2018-08-22T18:12:53.781Z,24.65
2018-08-22T18:15:27.905Z,24.50
2018-08-22T18:18:00.704Z,24.31
2018-08-22T18:20:31.631Z,24.14
2018-08-22T18:23:02.352Z,23.97
2018-08-22T18:25:31.738Z,23.81
2018-08-22T18:28:06.502Z,23.65
2018-08-22T18:30:37.223Z,23.48
2018-08-22T18:33:08.724Z,23.37
2018-08-22T18:35:49.302Z,23.24
2018-08-22T18:38:19.733Z,23.12
2018-08-22T18:41:00.513Z,23.01
2018-08-22T18:43:33.919Z,22.87
2018-08-22T18:46:08.268Z,22.76
2018-08-22T18:48:39.311Z,22.61
2018-08-22T18:51:14.461Z,22.51
2018-08-22T18:53:44.454Z,22.40
2018-08-22T18:56:18.380Z,22.32
2018-08-22T18:58:47.765Z,22.18
2018-08-22T19:01:20.864Z,22.11
2018-08-22T19:03:51.453Z,22.05
2018-08-22T19:06:24.614Z,21.97
2018-08-22T19:08:57.502Z,21.84
2018-08-22T19:11:27.884Z,21.80
2018-08-22T19:14:01.266Z,21.75
2018-08-22T19:16:49.096Z,21.67
2018-08-22T19:19:24.016Z,21.61
2018-08-22T19:21:59.210Z,21.52
2018-08-22T19:24:28.630Z,21.46
2018-08-22T19:26:59.795Z,21.43
2018-08-22T19:29:33.522Z,21.38
2018-08-22T19:32:02.942Z,21.34
2018-08-22T19:34:34.565Z,21.25
2018-08-22T19:37:04.537Z,21.18
2018-08-22T19:39:35.215Z,21.08
2018-08-22T19:42:06.834Z,20.99
2018-08-22T19:44:41.812Z,20.95
2018-08-22T19:47:12.062Z,20.90
2018-08-22T19:49:42.371Z,20.83
2018-08-22T19:52:15.323Z,20.78
2018-08-22T19:54:46.523Z,20.77
2018-08-22T19:57:22.277Z,20.74
2018-08-22T19:59:53.414Z,20.69
2018-08-22T20:02:27.774Z,20.60
2018-08-22T20:04:58.120Z,20.52
2018-08-22T20:07:30.285Z,20.44
2018-08-22T20:10:00.087Z,20.38
2018-08-22T20:12:40.867Z,20.33
2018-08-22T20:15:10.494Z,20.29
2018-08-22T20:17:43.507Z,20.22
2018-08-22T20:20:13.651Z,20.12
2018-08-22T20:22:47.192Z,20.07
2018-08-22T20:25:18.018Z,20.09
2018-08-22T20:27:49.880Z,20.07
2018-08-22T20:30:26.314Z,19.98
2018-08-22T20:33:00.815Z,19.87
2018-08-22T20:35:32.366Z,19.80
2018-08-22T20:38:09.387Z,19.74
2018-08-22T20:40:38.920Z,19.65
2018-08-22T20:43:17.989Z,19.60
2018-08-22T20:45:47.543Z,19.53
2018-08-22T20:48:21.747Z,19.46
2018-08-22T20:50:51.169Z,19.39
2018-08-22T20:53:21.718Z,19.38
2018-08-22T20:55:51.144Z,19.32
2018-08-22T20:58:25.173Z,19.25
2018-08-22T21:00:54.652Z,19.18
2018-08-22T21:03:24.444Z,19.09
2018-08-22T21:05:55.263Z,19.01
2018-08-22T21:08:26.218Z,18.95
2018-08-22T21:10:55.703Z,18.95
2018-08-22T21:13:29.756Z,18.90
2018-08-22T21:16:00.141Z,18.83
2018-08-22T21:18:31.635Z,18.80
2018-08-22T21:21:01.991Z,18.76
2018-08-22T21:23:32.262Z,18.69
2018-08-22T21:26:04.416Z,18.63
2018-08-22T21:28:39.590Z,18.60
2018-08-22T21:31:09.848Z,18.54
2018-08-22T21:33:39.230Z,18.49
2018-08-22T21:36:09.972Z,18.45
2018-08-22T21:38:40.527Z,18.43
2018-08-22T21:41:13.810Z,18.36
2018-08-22T21:43:47.541Z,18.29
2018-08-22T21:46:17.254Z,18.23
2018-08-22T21:48:47.162Z,18.22
2018-08-22T21:51:17.444Z,18.16
2018-08-22T21:53:48.110Z,18.12
2018-08-22T21:56:37.072Z,18.07
2018-08-22T21:59:06.614Z,18.00
2018-08-22T22:01:47.346Z,17.98
2018-08-22T22:04:21.214Z,17.98
2018-08-22T22:06:51.269Z,17.94
2018-08-22T22:09:21.746Z,17.91
2018-08-22T22:11:58.547Z,17.88
2018-08-22T22:14:31.666Z,17.80
2018-08-22T22:17:02.682Z,17.78
2018-08-22T22:19:39.472Z,17.78
2018-08-22T22:22:08.887Z,17.75
2018-08-22T22:24:52.743Z,17.72
2018-08-22T22:27:22.285Z,17.70
2018-08-22T22:29:58.280Z,17.67
2018-08-22T22:32:27.684Z,17.62
2018-08-22T22:34:58.829Z,17.63
2018-08-22T22:37:29.726Z,17.64
2018-08-22T22:40:02.828Z,17.62
2018-08-22T22:42:32.296Z,17.56
2018-08-22T22:45:02.898Z,17.59
2018-08-22T22:47:33.436Z,17.57
2018-08-22T22:50:05.454Z,17.55
2018-08-22T22:52:43.699Z,17.57
2018-08-22T22:55:14.274Z,17.58
2018-08-22T22:57:44.947Z,17.57
2018-08-22T23:00:15.660Z,17.59
2018-08-22T23:02:46.946Z,17.55
2018-08-22T23:05:16.873Z,17.59
2018-08-22T23:07:46.335Z,17.58
2018-08-22T23:10:16.143Z,17.57
2018-08-22T23:12:48.156Z,17.62
2018-08-22T23:15:23.533Z,17.64
2018-08-22T23:17:55.669Z,17.61
2018-08-22T23:20:49.493Z,17.59
2018-08-22T23:23:29.229Z,17.65
2018-08-22T23:26:05.966Z,17.65
2018-08-22T23:28:35.535Z,17.69
2018-08-22T23:31:05.699Z,17.77
2018-08-22T23:33:35.130Z,17.85
2018-08-22T23:36:05.859Z,17.88
2018-08-22T23:38:38.218Z,17.99
2018-08-22T23:41:07.662Z,18.25
2018-08-22T23:43:50.415Z,18.34
2018-08-22T23:46:19.930Z,18.40
2018-08-22T23:48:57.659Z,18.46
2018-08-22T23:51:29.093Z,18.51
2018-08-22T23:54:01.899Z,18.55
2018-08-22T23:56:33.051Z,18.61
2018-08-22T23:59:04.381Z,18.69
